Time;durP1;ratioP1;P1;durP2;ratioP2;P2;SDS_P1;SDS_P2;PMS_P1;PMS_P2;Temp;Humidity;BMP_temperature;BMP_pressure;BME280_temperature;BME280_humidity;BME280_pressure;Samples;Min_cycle;Max_cycle;Signal;HPM_P1;HPM_P2
2021/03/27 00:00:39;;;;;;;24.32;14.40;;;;;;;7.94;56.65;100915.36;1649408;87;21024;-61
2021/03/27 00:03:33;;;;;;;28.25;14.20;;;;;;;7.92;56.70;100917.39;1692536;84;21110;-61
2021/03/27 00:06:15;;;;;;;29.35;14.70;;;;;;;7.91;56.75;100909.38;1690567;85;21102;-60
2021/03/27 00:09:00;;;;;;;28.30;14.23;;;;;;;7.91;56.73;100908.87;1690235;85;21159;-60
2021/03/27 00:11:52;;;;;;;30.10;15.10;;;;;;;7.90;56.76;100911.25;1663047;85;21506;-60
2021/03/27 00:14:46;;;;;;;26.37;14.70;;;;;;;7.88;56.83;100907.84;1690027;85;21221;-62
2021/03/27 00:17:22;;;;;;;26.60;14.10;;;;;;;7.87;56.83;100911.59;1688822;85;21308;-61
2021/03/27 00:19:54;;;;;;;29.37;15.20;;;;;;;7.88;56.83;100910.57;1690351;85;21031;-61
2021/03/27 00:22:30;;;;;;;28.42;14.40;;;;;;;7.89;56.83;100912.78;1690518;85;21169;-61
2021/03/27 00:25:19;;;;;;;28.87;14.80;;;;;;;7.90;56.77;100907.16;1667709;85;21138;-61
2021/03/27 00:28:13;;;;;;;28.40;14.85;;;;;;;7.92;56.72;100905.63;1636273;86;21375;-61
2021/03/27 00:30:52;;;;;;;25.20;13.80;;;;;;;7.90;56.77;100905.80;1662715;86;21147;-61
2021/03/27 00:33:30;;;;;;;28.05;14.07;;;;;;;7.91;56.75;100907.50;1662759;86;21352;-62
2021/03/27 00:36:02;;;;;;;27.10;15.03;;;;;;;7.93;56.76;100906.83;1662909;86;21356;-61
2021/03/27 00:38:37;;;;;;;30.50;14.33;;;;;;;7.96;56.69;100905.64;1662604;86;21221;-60
2021/03/27 00:41:13;;;;;;;23.75;12.63;;;;;;;7.98;56.63;100902.22;1661791;86;21087;-61
2021/03/27 00:43:47;;;;;;;;;;;;;;;7.97;56.66;100905.98;1642071;86;21785;-60
2021/03/27 00:46:15;;;;;;;25.45;13.93;;;;;;;7.94;56.66;100907.68;1639939;87;20269;-60
2021/03/27 00:48:52;;;;;;;27.25;14.23;;;;;;;7.91;56.75;100906.66;1640466;86;21347;-60
2021/03/27 00:51:27;;;;;;;;;;;;;;;7.90;56.76;100905.80;1643129;86;21094;-61
2021/03/27 00:54:31;;;;;;;28.70;14.35;;;;;;;7.90;56.75;100907.16;1640482;86;20689;-59
2021/03/27 00:57:10;;;;;;;26.17;14.03;;;;;;;7.85;56.87;100906.81;1640454;87;21054;-61
2021/03/27 01:00:09;;;;;;;27.75;14.40;;;;;;;7.80;56.99;100908.30;1659994;86;21699;-60
2021/03/27 01:03:06;;;;;;;23.92;12.70;;;;;;;7.78;57.04;100904.89;1627740;87;21078;-60
2021/03/27 01:05:48;;;;;;;25.15;13.95;;;;;;;7.76;57.13;100910.52;1507531;87;21134;-60
2021/03/27 01:08:36;;;;;;;32.88;14.85;;;;;;;7.78;57.14;100904.89;1640550;86;21297;-60
2021/03/27 01:11:23;;;;;;;27.30;13.78;;;;;;;7.77;57.15;100906.77;1631030;87;21809;-60
2021/03/27 01:13:57;;;;;;;32.95;14.90;;;;;;;7.74;57.21;100906.24;1640257;86;21130;-60
2021/03/27 01:16:29;;;;;;;23.77;13.15;;;;;;;7.73;57.25;100908.12;1659744;86;21141;-60
2021/03/27 01:19:14;;;;;;;23.80;13.95;;;;;;;7.74;57.26;100911.70;1638180;86;21121;-60
2021/03/27 01:21:42;;;;;;;25.70;14.07;;;;;;;7.73;57.27;100909.48;1632821;87;21245;-60
2021/03/27 01:24:13;;;;;;;28.77;14.15;;;;;;;7.74;57.30;100909.83;1628248;86;21493;-61
2021/03/27 01:26:54;;;;;;;24.80;13.85;;;;;;;7.74;57.26;100907.09;1640680;87;21276;-60
2021/03/27 01:29:39;;;;;;;27.75;13.60;;;;;;;7.77;57.25;100910.86;1640625;87;21330;-60
2021/03/27 01:32:12;;;;;;;28.62;13.40;;;;;;;7.81;57.19;100911.41;1640769;87;21303;-61
2021/03/27 01:35:06;;;;;;;30.70;15.15;;;;;;;7.82;57.10;100909.02;1640665;87;21096;-60
2021/03/27 01:38:09;;;;;;;33.95;15.83;;;;;;;7.81;57.09;100904.59;1640711;87;21092;-61
2021/03/27 01:41:12;;;;;;;31.17;15.08;;;;;;;7.79;57.13;100911.55;1640645;87;21183;-61
2021/03/27 01:43:58;;;;;;;28.02;14.87;;;;;;;7.77;57.13;100914.95;1640645;86;22048;-60
2021/03/27 01:46:43;;;;;;;29.10;15.78;;;;;;;7.75;57.19;100906.08;1661729;86;21922;-60
2021/03/27 01:49:33;;;;;;;27.75;14.98;;;;;;;7.75;57.21;100902.50;1665429;86;21232;-61
2021/03/27 01:52:12;;;;;;;27.77;14.83;;;;;;;7.76;57.18;100902.33;1670188;85;21096;-60
2021/03/27 01:55:27;;;;;;;26.87;15.20;;;;;;;7.76;57.22;100906.93;1672139;85;21093;-62
2021/03/27 01:58:21;;;;;;;30.02;15.55;;;;;;;7.77;57.17;100912.22;1672369;85;21365;-60
2021/03/27 02:01:05;;;;;;;29.18;14.68;;;;;;;7.75;57.16;100912.05;1672237;85;21069;-62
2021/03/27 02:04:01;;;;;;;27.55;15.90;;;;;;;7.72;57.35;100913.23;1672254;85;22033;-61
2021/03/27 02:06:37;;;;;;;27.85;15.88;;;;;;;7.71;57.42;100915.61;1647473;85;21088;-60
2021/03/27 02:09:36;;;;;;;27.95;15.00;;;;;;;7.67;57.47;100914.75;1655970;86;21804;-61
2021/03/27 02:12:44;;;;;;;27.13;15.32;;;;;;;7.64;57.59;100911.34;1660622;86;21142;-61
2021/03/27 02:15:16;;;;;;;27.13;14.83;;;;;;;7.65;57.66;100914.91;1662941;86;21374;-60
2021/03/27 02:17:52;;;;;;;28.07;15.90;;;;;;;7.65;57.78;100916.28;1663076;86;21106;-59
2021/03/27 02:20:42;;;;;;;29.60;17.37;;;;;;;7.64;57.77;100922.76;1637171;86;21102;-60
2021/03/27 02:23:26;;;;;;;32.05;16.40;;;;;;;7.64;57.78;100915.94;1662854;86;21285;-60
2021/03/27 02:26:20;;;;;;;30.80;16.85;;;;;;;7.64;57.79;100920.03;1662979;86;21340;-59
2021/03/27 02:29:31;;;;;;;32.05;16.32;;;;;;;7.64;57.77;100919.52;1663174;86;21118;-60
2021/03/27 02:32:31;;;;;;;27.37;16.25;;;;;;;7.61;57.87;100920.36;1664369;86;21108;-61
2021/03/27 02:35:34;;;;;;;29.15;15.85;;;;;;;7.56;57.98;100919.50;1666434;86;21097;-61
2021/03/27 02:38:34;;;;;;;29.02;16.05;;;;;;;7.53;57.99;100921.70;1651283;86;21105;-61
2021/03/27 02:41:22;;;;;;;29.65;16.45;;;;;;;7.51;58.10;100915.55;1666513;86;21805;-61
2021/03/27 02:43:56;;;;;;;41.10;20.15;;;;;;;7.52;58.00;100924.08;1666399;86;21065;-61
2021/03/27 02:46:48;;;;;;;41.70;19.37;;;;;;;7.55;57.92;100921.02;1666362;86;21367;-61
2021/03/27 02:49:34;;;;;;;29.87;15.00;;;;;;;7.56;58.01;100923.58;1665296;85;21062;-61
2021/03/27 02:52:31;;;;;;;27.00;14.35;;;;;;;7.55;57.77;100921.87;1660154;86;21387;-61
2021/03/27 02:55:28;;;;;;;27.70;13.05;;;;;;;7.53;57.68;100923.06;1666406;86;21190;-61
2021/03/27 02:58:13;;;;;;;28.32;14.07;;;;;;;7.51;57.66;100923.23;1624732;86;21697;-60
2021/03/27 03:01:01;;;;;;;28.07;14.13;;;;;;;7.52;57.64;100927.66;1581940;87;21133;-60
2021/03/27 03:03:59;;;;;;;30.57;13.43;;;;;;;7.55;57.58;100930.56;1636447;87;21112;-60
2021/03/27 03:06:56;;;;;;;25.48;13.10;;;;;;;7.56;57.49;100928.19;1636312;87;21358;-60
2021/03/27 03:09:38;;;;;;;25.80;13.53;;;;;;;7.56;57.46;100932.27;1630199;87;21074;-60
2021/03/27 03:12:14;;;;;;;24.50;13.25;;;;;;;7.56;57.40;100932.27;1625403;87;21384;-60
2021/03/27 03:15:05;;;;;;;26.75;13.80;;;;;;;7.52;57.46;100933.62;1655120;86;21121;-60
2021/03/27 03:17:54;;;;;;;26.73;13.50;;;;;;;7.52;57.50;100937.72;1639379;87;21303;-60
2021/03/27 03:20:30;;;;;;;28.52;13.98;;;;;;;7.51;57.53;100941.45;1639683;86;21070;-60
2021/03/27 03:23:25;;;;;;;29.57;14.33;;;;;;;7.49;57.56;100941.63;1639236;86;21254;-59
2021/03/27 03:26:32;;;;;;;27.82;14.47;;;;;;;7.45;57.65;100940.75;1639512;86;21365;-61
2021/03/27 03:29:24;;;;;;;25.75;13.50;;;;;;;7.45;57.73;100947.06;1639462;87;21110;-60
2021/03/27 03:32:06;;;;;;;26.02;14.20;;;;;;;7.45;57.84;100948.42;1640772;85;21089;-59
2021/03/27 03:34:59;;;;;;;30.30;15.25;;;;;;;7.48;57.87;100945.87;1663819;86;21105;-61
2021/03/27 03:38:19;;;;;;;24.35;13.65;;;;;;;7.47;57.83;100938.72;1663897;86;21248;-61
2021/03/27 03:41:10;;;;;;;26.45;13.65;;;;;;;7.46;57.86;100946.55;1663995;86;21085;-59
2021/03/27 03:44:15;;;;;;;28.42;14.15;;;;;;;7.43;57.85;100946.88;1663855;86;21979;-60
2021/03/27 03:47:11;;;;;;;31.37;14.47;;;;;;;7.44;57.85;100941.77;1663746;86;21840;-61
2021/03/27 03:49:47;;;;;;;29.50;14.70;;;;;;;7.43;57.83;100945.02;1663566;86;21360;-60
2021/03/27 03:52:30;;;;;;;28.35;15.23;;;;;;;7.41;57.84;100943.47;1636952;86;21184;-60
2021/03/27 03:55:19;;;;;;;28.25;15.23;;;;;;;7.37;57.93;100947.03;1660798;85;21113;-62
2021/03/27 03:58:16;;;;;;;32.80;15.18;;;;;;;7.35;58.00;100944.12;1663861;86;21438;-62
2021/03/27 04:01:10;;;;;;;26.57;14.38;;;;;;;7.32;58.06;100948.03;1663823;86;21471;-62
2021/03/27 04:04:20;;;;;;;29.23;15.58;;;;;;;7.30;58.15;100949.55;1663956;86;21113;-60
2021/03/27 04:07:00;;;;;;;27.90;14.70;;;;;;;7.29;58.15;100945.12;1663649;86;21200;-59
2021/03/27 04:09:53;;;;;;;27.60;14.85;;;;;;;7.25;58.25;100956.52;1663797;86;21204;-60
2021/03/27 04:12:35;;;;;;;30.05;15.15;;;;;;;7.23;58.31;100948.50;1663844;86;21903;-59
2021/03/27 04:15:28;;;;;;;28.60;15.25;;;;;;;7.24;58.36;100954.80;1658691;86;21257;-62
2021/03/27 04:18:19;;;;;;;26.93;14.80;;;;;;;7.25;58.46;100948.33;1639195;87;21128;-62
2021/03/27 04:21:21;;;;;;;30.32;14.35;;;;;;;7.26;58.43;100952.26;1639780;87;21336;-60
2021/03/27 04:24:13;;;;;;;31.05;14.10;;;;;;;7.24;58.39;100954.30;1620924;87;21152;-61
2021/03/27 04:26:58;;;;;;;26.55;14.53;;;;;;;7.22;58.48;100951.38;1626672;87;21208;-61
2021/03/27 04:29:51;;;;;;;29.23;15.83;;;;;;;7.21;58.45;100953.25;1639744;86;21085;-61
2021/03/27 04:32:33;;;;;;;29.72;14.95;;;;;;;7.22;58.50;100959.05;1642442;87;21742;-61
2021/03/27 04:35:24;;;;;;;28.55;14.60;;;;;;;7.23;58.53;100960.77;1632600;87;21801;-61
2021/03/27 04:38:15;;;;;;;29.57;14.98;;;;;;;7.26;58.51;100960.44;1618156;87;21138;-59
2021/03/27 04:41:06;;;;;;;29.48;14.80;;;;;;;7.27;58.48;100967.59;1654976;85;21100;-62
2021/03/27 04:43:42;;;;;;;28.70;15.40;;;;;;;7.30;58.47;100971.87;1630574;86;21306;-61
2021/03/27 04:46:20;;;;;;;36.10;16.20;;;;;;;7.31;58.37;100968.98;1659974;86;21291;-61
2021/03/27 04:49:00;;;;;;;;;;;;;;;7.33;58.30;100973.41;1670045;86;21205;-60
2021/03/27 04:51:45;;;;;;;32.58;16.95;;;;;;;7.32;58.32;100972.56;1666954;86;20259;-61
2021/03/27 04:54:39;;;;;;;34.08;18.07;;;;;;;7.30;58.32;100974.59;1639959;86;21385;-60
2021/03/27 04:57:33;;;;;;;33.25;16.95;;;;;;;7.32;58.36;100967.11;1666077;86;21089;-60
2021/03/27 05:00:24;;;;;;;33.83;17.40;;;;;;;7.36;58.33;100971.73;1660780;86;21257;-60
2021/03/27 05:03:25;;;;;;;31.50;17.30;;;;;;;7.34;58.26;100976.48;1633959;86;21118;-60
2021/03/27 05:06:06;;;;;;;30.85;16.12;;;;;;;7.31;58.28;100981.25;1660533;86;21364;-61
2021/03/27 05:09:17;;;;;;;30.20;16.45;;;;;;;7.30;58.34;100980.91;1660699;86;21069;-61
2021/03/27 05:12:02;;;;;;;31.70;16.00;;;;;;;7.33;58.35;100984.31;1659713;86;21306;-62
2021/03/27 05:14:58;;;;;;;30.62;15.00;;;;;;;7.37;58.32;100991.16;1660646;86;21357;-60
2021/03/27 05:17:50;;;;;;;28.40;15.28;;;;;;;7.40;58.28;100982.66;1660624;86;21256;-61
2021/03/27 05:20:37;;;;;;;29.87;14.65;;;;;;;7.46;58.15;100991.54;1660719;86;21395;-60
2021/03/27 05:23:15;;;;;;;25.88;13.85;;;;;;;7.48;58.03;100989.50;1660683;86;21336;-60
2021/03/27 05:25:58;;;;;;;32.85;15.58;;;;;;;7.53;57.88;100993.45;1660767;86;21228;-61
2021/03/27 05:28:59;;;;;;;37.63;15.40;;;;;;;7.56;57.71;100996.36;1660575;86;21097;-61
2021/03/27 05:31:54;;;;;;;30.37;15.28;;;;;;;7.57;57.64;100991.25;1660520;86;21738;-61
2021/03/27 05:34:40;;;;;;;30.40;14.15;;;;;;;7.59;57.56;100992.80;1633733;86;21518;-61
2021/03/27 05:37:31;;;;;;;32.08;15.48;;;;;;;7.61;57.45;100992.63;1634151;86;21185;-60
2021/03/27 05:40:26;;;;;;;24.82;14.18;;;;;;;7.63;57.35;100991.95;1661307;85;21101;-61
2021/03/27 05:43:11;;;;;;;26.55;13.90;;;;;;;7.65;57.28;100989.92;1670271;85;21089;-61
2021/03/27 05:46:00;;;;;;;27.93;14.15;;;;;;;7.69;57.21;100989.08;1669029;85;21374;-61
2021/03/27 05:48:56;;;;;;;31.68;14.80;;;;;;;7.70;57.10;100990.28;1666101;86;21138;-61
2021/03/27 05:52:22;;;;;;;28.27;13.28;;;;;;;7.74;57.00;100993.02;1652594;86;21388;-63
2021/03/27 05:55:16;;;;;;;30.20;13.98;;;;;;;7.77;56.89;100999.52;1639315;87;21114;-61
2021/03/27 05:58:06;;;;;;;26.95;13.38;;;;;;;7.82;56.75;101001.27;1639059;87;21086;-61
2021/03/27 06:00:57;;;;;;;28.12;14.30;;;;;;;7.88;56.56;101005.20;1639188;87;21361;-60
2021/03/27 06:04:15;;;;;;;28.47;13.68;;;;;;;7.92;56.42;100998.40;1639269;87;21336;-61
2021/03/27 06:07:01;;;;;;;23.02;12.88;;;;;;;7.96;56.27;100995.68;1639503;86;21672;-60
2021/03/27 06:10:11;;;;;;;27.27;13.35;;;;;;;8.03;56.06;100998.59;1639261;86;21122;-61
2021/03/27 06:13:30;;;;;;;27.45;13.62;;;;;;;8.08;55.92;100997.59;1639197;86;21208;-61
2021/03/27 06:16:24;;;;;;;25.57;13.15;;;;;;;8.12;55.75;100994.87;1610269;86;21212;-61
2021/03/27 06:19:36;;;;;;;28.07;14.87;;;;;;;8.19;55.66;100997.27;1639279;87;21106;-62
2021/03/27 06:22:24;;;;;;;26.55;13.93;;;;;;;8.24;55.40;100994.89;1638420;87;21239;-63
2021/03/27 06:25:00;;;;;;;27.98;14.33;;;;;;;8.31;55.38;100996.44;1665624;86;21149;-62
2021/03/27 06:27:50;;;;;;;;;;;;;;;8.38;55.11;101004.33;1669402;85;21068;-60
2021/03/27 06:30:52;;;;;;;31.12;15.32;;;;;;;8.42;55.03;101003.82;1667267;86;20195;-60
2021/03/27 06:33:59;;;;;;;31.85;15.83;;;;;;;8.49;54.82;101009.49;1666871;86;21333;-61
2021/03/27 06:37:04;;;;;;;25.15;13.58;;;;;;;8.56;54.71;101011.89;1666931;86;21042;-62
2021/03/27 06:39:51;;;;;;;28.87;16.55;;;;;;;8.65;54.50;101012.75;1638035;86;21082;-62
2021/03/27 06:42:40;;;;;;;28.23;14.85;;;;;;;8.70;54.36;101010.36;1639390;86;21105;-61
2021/03/27 06:46:02;;;;;;;28.70;15.45;;;;;;;8.78;54.22;101018.55;1626648;86;21217;-63
2021/03/27 06:49:25;;;;;;;28.90;14.35;;;;;;;8.86;53.93;101015.30;1661127;84;21122;-61
2021/03/27 06:52:11;;;;;;;23.80;13.32;;;;;;;8.95;53.56;101021.61;1657899;86;21109;-62
2021/03/27 06:55:05;;;;;;;26.07;13.85;;;;;;;9.02;53.34;101017.68;1630561;86;21325;-61
2021/03/27 06:58:09;;;;;;;26.02;13.48;;;;;;;9.09;53.22;101018.19;1655845;86;21149;-61
2021/03/27 07:00:47;;;;;;;28.02;13.55;;;;;;;9.20;52.94;101021.10;1654661;86;21292;-60
2021/03/27 07:03:48;;;;;;;27.00;14.43;;;;;;;9.27;52.56;101015.79;1660001;86;21604;-61
2021/03/27 07:06:40;;;;;;;28.77;14.38;;;;;;;9.33;52.57;101024.67;1658068;86;21260;-61
2021/03/27 07:09:34;;;;;;;24.92;13.38;;;;;;;9.43;52.39;101019.85;1657851;86;21248;-61
2021/03/27 07:12:31;;;;;;;27.05;13.85;;;;;;;9.52;52.21;101023.75;1657402;86;21384;-61
2021/03/27 07:15:20;;;;;;;25.55;14.18;;;;;;;9.63;52.04;101021.67;1658813;86;21205;-62
2021/03/27 07:18:20;;;;;;;28.38;14.00;;;;;;;9.74;51.61;101022.66;1656366;86;21081;-62
2021/03/27 07:21:29;;;;;;;27.02;14.83;;;;;;;9.80;51.30;101017.88;1657637;86;21275;-62
2021/03/27 07:24:25;;;;;;;24.92;13.53;;;;;;;9.87;51.22;101022.12;1657615;86;21137;-61
2021/03/27 07:27:34;;;;;;;25.50;13.90;;;;;;;9.94;51.01;101021.74;1658052;86;21411;-61
2021/03/27 07:30:34;;;;;;;24.35;13.03;;;;;;;9.98;50.80;101023.95;1657946;86;21333;-61
2021/03/27 07:33:31;;;;;;;28.32;14.70;;;;;;;10.03;50.69;101022.04;1657834;86;21852;-62
2021/03/27 07:36:41;;;;;;;29.23;14.85;;;;;;;10.15;50.64;101027.45;1657522;86;21080;-63
2021/03/27 07:39:35;;;;;;;30.37;15.03;;;;;;;10.29;50.32;101017.64;1657977;86;21282;-62
2021/03/27 07:42:27;;;;;;;29.77;14.78;;;;;;;10.41;49.79;101027.19;1657945;86;21831;-61
2021/03/27 07:45:32;;;;;;;29.18;15.75;;;;;;;10.47;49.55;101025.94;1608875;88;21117;-61
2021/03/27 07:48:29;;;;;;;29.85;15.13;;;;;;;10.56;49.44;101025.88;1655926;85;21097;-61
2021/03/27 07:51:18;;;;;;;32.00;15.80;;;;;;;10.68;49.27;101028.53;1659433;86;21106;-60
2021/03/27 07:54:10;;;;;;;25.88;15.08;;;;;;;10.78;48.88;101034.62;1659595;85;21393;-63
2021/03/27 07:56:58;;;;;;;27.40;14.75;;;;;;;10.87;48.76;101027.17;1658362;86;21369;-63
2021/03/27 07:59:31;;;;;;;25.68;15.23;;;;;;;10.98;48.48;101028.11;1658528;86;21083;-62
2021/03/27 08:02:31;;;;;;;30.90;15.40;;;;;;;11.09;48.21;101026.32;1659528;86;21390;-63
2021/03/27 08:05:18;;;;;;;31.73;15.48;;;;;;;11.18;47.86;101028.47;1659006;86;21095;-62
2021/03/27 08:08:07;;;;;;;29.23;15.80;;;;;;;11.26;47.56;101027.86;1659601;86;21075;-63
2021/03/27 08:11:05;;;;;;;30.02;15.53;;;;;;;11.36;47.33;101028.45;1659583;86;21064;-61
2021/03/27 08:13:57;;;;;;;31.60;16.60;;;;;;;11.47;47.02;101024.91;1659419;86;21330;-62
2021/03/27 08:16:30;;;;;;;28.32;15.95;;;;;;;11.52;46.58;101026.56;1655542;86;21083;-62
2021/03/27 08:19:23;;;;;;;33.78;16.30;;;;;;;11.56;46.44;101025.14;1655387;86;21226;-62
2021/03/27 08:22:00;;;;;;;32.85;16.75;;;;;;;11.62;46.22;101021.64;1659479;86;21852;-62
2021/03/27 08:24:54;;;;;;;32.70;17.00;;;;;;;11.69;46.04;101017.95;1639121;86;21875;-62
2021/03/27 08:27:53;;;;;;;38.35;16.17;;;;;;;11.78;45.88;101019.29;1659387;86;21252;-62
2021/03/27 08:30:44;;;;;;;29.52;16.15;;;;;;;11.88;45.25;101019.84;1659277;86;21209;-62
2021/03/27 08:33:28;;;;;;;44.98;17.70;;;;;;;11.97;44.95;101015.43;1659538;85;21071;-62
2021/03/27 08:36:33;;;;;;;28.07;15.38;;;;;;;12.06;44.69;101025.78;1659470;86;21300;-62
2021/03/27 08:39:48;;;;;;;27.95;14.80;;;;;;;12.09;44.22;101018.53;1638072;86;21098;-62
2021/03/27 08:42:28;;;;;;;31.75;15.72;;;;;;;12.13;44.05;101014.88;1660012;86;21058;-63
2021/03/27 08:45:44;;;;;;;28.85;16.15;;;;;;;12.24;44.02;101015.23;1657260;86;21212;-62
2021/03/27 08:48:52;;;;;;;30.77;14.45;;;;;;;12.32;43.68;101011.51;1659283;86;21196;-61
2021/03/27 08:51:47;;;;;;;26.17;13.62;;;;;;;12.43;41.99;101016.53;1658473;86;21054;-64
2021/03/27 08:54:46;;;;;;;27.10;14.13;;;;;;;12.51;41.47;101008.16;1658403;86;21078;-61
2021/03/27 08:57:28;;;;;;;24.43;14.10;;;;;;;12.59;40.67;101005.80;1657732;86;21130;-63
2021/03/27 09:00:40;;;;;;;23.18;13.93;;;;;;;12.73;40.66;101010.91;1629079;86;21817;-61
2021/03/27 09:03:36;;;;;;;26.57;14.63;;;;;;;12.84;40.60;101007.10;1646186;85;21101;-63
2021/03/27 09:06:30;;;;;;;30.35;15.03;;;;;;;12.93;39.91;101010.04;1647242;86;21826;-63
2021/03/27 09:09:32;;;;;;;22.00;13.28;;;;;;;13.03;39.55;101008.36;1657715;86;21066;-62
2021/03/27 09:12:10;;;;;;;25.95;13.32;;;;;;;13.12;39.74;100998.05;1657748;86;21058;-62
2021/03/27 09:14:47;;;;;;;22.35;13.72;;;;;;;13.24;39.60;101001.98;1642498;86;21831;-63
2021/03/27 09:17:23;;;;;;;25.62;13.68;;;;;;;13.37;39.53;100997.10;1632896;86;21113;-60
2021/03/27 09:20:30;;;;;;;23.62;13.72;;;;;;;13.48;39.33;101007.02;1656516;86;21103;-61
2021/03/27 09:23:22;;;;;;;22.62;13.43;;;;;;;13.56;38.65;100995.00;1647343;86;21277;-61
2021/03/27 09:26:36;;;;;;;26.23;14.33;;;;;;;13.67;38.45;100995.84;1643195;86;21073;-61
2021/03/27 09:29:47;;;;;;;28.47;13.93;;;;;;;13.76;37.97;100996.52;1668714;86;21744;-60
2021/03/27 09:32:54;;;;;;;24.10;13.35;;;;;;;13.85;37.67;101001.66;1655735;86;21225;-62
2021/03/27 09:36:04;;;;;;;26.82;14.47;;;;;;;13.95;37.31;100995.77;1626398;87;21134;-61
2021/03/27 09:39:03;;;;;;;25.23;14.58;;;;;;;13.94;37.05;100997.67;1631717;88;21034;-61
2021/03/27 09:42:00;;;;;;;26.17;13.80;;;;;;;13.86;36.72;100991.48;1599465;88;21727;-61
2021/03/27 09:45:13;;;;;;;25.45;14.53;;;;;;;13.68;36.65;101007.17;1631054;88;21294;-63
2021/03/27 09:48:04;;;;;;;26.55;14.90;;;;;;;13.64;36.78;101001.19;1656770;86;21818;-63
2021/03/27 09:50:53;;;;;;;28.92;15.13;;;;;;;13.72;36.69;100999.36;1657109;86;21101;-61
2021/03/27 09:53:37;;;;;;;23.90;13.93;;;;;;;13.83;36.63;100989.14;1628259;86;21077;-62
2021/03/27 09:56:34;;;;;;;32.20;15.10;;;;;;;13.95;36.33;100991.62;1628576;86;21208;-59
2021/03/27 09:59:34;;;;;;;25.00;14.47;;;;;;;14.06;36.12;100994.32;1647500;86;21181;-61
2021/03/27 10:02:22;;;;;;;31.07;15.48;;;;;;;14.18;36.04;100993.52;1635762;86;21125;-62
2021/03/27 10:05:35;;;;;;;28.98;15.53;;;;;;;14.27;35.85;100997.79;1660765;86;21090;-59
2021/03/27 10:08:38;;;;;;;29.15;16.62;;;;;;;14.33;35.96;100991.16;1660448;86;21835;-62
2021/03/27 10:11:22;;;;;;;29.20;14.63;;;;;;;14.44;35.58;100984.53;1659569;86;21086;-62
2021/03/27 10:14:11;;;;;;;30.10;16.45;;;;;;;14.55;35.78;100999.09;1661314;86;21012;-59
2021/03/27 10:17:02;;;;;;;28.55;15.32;;;;;;;14.62;35.47;100990.83;1656502;86;21301;-61
2021/03/27 10:19:37;;;;;;;27.30;15.25;;;;;;;14.74;35.24;100990.52;1660747;86;21054;-60
2021/03/27 10:22:18;;;;;;;28.40;15.72;;;;;;;14.85;35.04;100982.15;1627171;86;21281;-60
2021/03/27 10:25:10;;;;;;;26.30;14.73;;;;;;;14.97;34.95;100990.67;1609540;86;21155;-61
2021/03/27 10:27:47;;;;;;;28.12;15.78;;;;;;;15.09;34.64;100988.97;1603219;89;21269;-63
2021/03/27 10:30:42;;;;;;;27.58;15.93;;;;;;;15.22;34.31;100983.44;1646581;86;21114;-63
2021/03/27 10:33:29;;;;;;;28.00;15.55;;;;;;;15.30;33.95;100990.65;1649488;86;21129;-60
2021/03/27 10:36:11;;;;;;;27.42;14.65;;;;;;;15.31;33.81;100987.67;1656822;86;21130;-62
2021/03/27 10:39:03;;;;;;;27.37;15.25;;;;;;;15.35;33.91;100990.86;1660053;86;21085;-64
2021/03/27 10:41:53;;;;;;;27.40;15.80;;;;;;;15.44;33.46;100977.98;1633312;87;21074;-63
2021/03/27 10:44:34;;;;;;;26.85;15.18;;;;;;;15.49;33.85;100985.09;1633721;87;21333;-61
2021/03/27 10:47:27;;;;;;;31.90;16.70;;;;;;;15.65;33.61;100979.70;1635868;86;21109;-61
2021/03/27 10:50:06;;;;;;;28.20;15.98;;;;;;;15.84;33.35;100977.41;1658728;84;21813;-61
2021/03/27 10:53:03;;;;;;;26.17;14.58;;;;;;;16.01;33.07;100972.23;1655958;86;21121;-62
2021/03/27 10:56:05;;;;;;;24.65;14.73;;;;;;;16.13;32.70;100959.41;1657766;86;21209;-59
2021/03/27 10:59:12;;;;;;;25.27;14.25;;;;;;;16.29;32.46;100958.08;1652134;85;21104;-63
2021/03/27 11:01:55;;;;;;;26.73;14.25;;;;;;;16.39;32.23;100961.75;1657755;86;21103;-61
2021/03/27 11:04:42;;;;;;;28.80;17.15;;;;;;;16.48;31.62;100962.64;1657652;86;21799;-63
2021/03/27 11:07:31;;;;;;;25.70;14.23;;;;;;;16.47;31.49;100958.71;1657828;86;21357;-62
2021/03/27 11:10:25;;;;;;;22.37;13.28;;;;;;;16.47;31.42;100959.56;1627525;86;21343;-61
2021/03/27 11:13:16;;;;;;;31.82;13.45;;;;;;;16.49;31.30;100957.95;1658224;86;21085;-63
2021/03/27 11:16:13;;;;;;;24.55;13.65;;;;;;;16.49;31.01;100959.34;1667649;86;21129;-60
2021/03/27 11:18:52;;;;;;;25.60;14.10;;;;;;;16.49;31.61;100960.72;1668749;86;21100;-60
2021/03/27 11:21:48;;;;;;;28.92;14.15;;;;;;;16.52;31.33;100963.04;1668594;86;21082;-63
2021/03/27 11:24:43;;;;;;;25.65;15.08;;;;;;;16.41;31.20;100957.69;1621438;86;21280;-65
2021/03/27 11:27:37;;;;;;;24.40;13.78;;;;;;;16.13;31.74;100955.80;1628646;88;21102;-62
2021/03/27 11:30:41;;;;;;;22.58;13.75;;;;;;;16.03;32.10;100956.27;1635135;85;21110;-60
2021/03/27 11:33:30;;;;;;;27.58;14.75;;;;;;;16.09;32.12;100956.77;1652789;86;21047;-62
2021/03/27 11:36:18;;;;;;;25.82;14.45;;;;;;;16.17;32.10;100952.91;1652569;86;21385;-61
2021/03/27 11:39:12;;;;;;;23.62;14.45;;;;;;;16.24;31.83;100951.48;1652490;86;21303;-61
2021/03/27 11:41:44;;;;;;;26.70;13.62;;;;;;;16.38;31.84;100948.45;1655507;86;21193;-61
2021/03/27 11:44:46;;;;;;;28.17;14.45;;;;;;;16.52;31.39;100953.36;1656876;86;21243;-61
2021/03/27 11:47:34;;;;;;;25.00;14.35;;;;;;;16.62;31.46;100945.95;1656923;85;21216;-61
2021/03/27 11:50:43;;;;;;;21.60;11.70;;;;;;;16.79;31.19;100949.35;1633774;86;21134;-63
2021/03/27 11:53:52;;;;;;;20.77;12.23;;;;;;;16.87;29.75;100943.22;1660364;85;21197;-60
2021/03/27 11:57:00;;;;;;;20.37;11.60;;;;;;;16.92;29.64;100949.81;1660219;86;21337;-62
2021/03/27 11:59:42;;;;;;;22.22;11.75;;;;;;;16.94;29.51;100944.05;1661106;86;21106;-61
2021/03/27 12:02:30;;;;;;;24.18;12.82;;;;;;;16.96;29.35;100944.13;1642117;85;21142;-62
2021/03/27 12:05:41;;;;;;;21.42;12.63;;;;;;;16.88;29.72;100943.00;1659279;86;21156;-64
2021/03/27 12:08:50;;;;;;;22.65;12.98;;;;;;;16.92;30.38;100942.89;1621891;86;21250;-62
2021/03/27 12:11:47;;;;;;;25.92;13.98;;;;;;;16.99;30.67;100949.75;1653664;86;21173;-62
2021/03/27 12:14:53;;;;;;;24.05;13.90;;;;;;;17.02;30.49;100947.91;1651630;87;21340;-63
2021/03/27 12:17:53;;;;;;;27.20;14.45;;;;;;;17.00;30.39;100942.60;1656407;85;21717;-61
2021/03/27 12:20:35;;;;;;;23.60;13.13;;;;;;;16.99;30.33;100949.75;1577251;86;21114;-61
2021/03/27 12:23:24;;;;;;;24.15;12.90;;;;;;;16.89;30.05;100946.08;1660286;86;22014;-62
2021/03/27 12:26:10;;;;;;;25.23;13.45;;;;;;;16.66;30.17;100942.54;1659983;85;21442;-62
2021/03/27 12:29:11;;;;;;;22.27;12.95;;;;;;;16.47;30.62;100939.34;1660165;85;21073;-63
2021/03/27 12:31:56;;;;;;;22.02;13.38;;;;;;;16.56;30.31;100931.63;1628223;85;21862;-65
2021/03/27 12:35:13;;;;;;;23.90;13.80;;;;;;;16.73;30.53;100934.18;1650735;85;21358;-61
2021/03/27 12:38:01;;;;;;;21.75;12.95;;;;;;;16.94;30.46;100932.44;1610676;87;21342;-61
2021/03/27 12:41:00;;;;;;;25.27;13.70;;;;;;;17.17;30.05;100935.95;1632382;85;21098;-63
2021/03/27 12:43:31;;;;;;;23.27;12.78;;;;;;;17.34;29.80;100938.43;1612852;87;22215;-65
2021/03/27 12:46:28;;;;;;;21.62;12.40;;;;;;;17.50;29.54;100937.52;1642498;86;21711;-62
2021/03/27 12:49:37;;;;;;;22.30;12.93;;;;;;;17.59;29.27;100943.09;1652729;85;21972;-64
2021/03/27 12:52:35;;;;;;;21.50;12.90;;;;;;;17.71;29.33;100938.51;1673565;84;21089;-62
2021/03/27 12:55:22;;;;;;;26.80;14.95;;;;;;;17.84;28.66;100934.19;1673851;84;21793;-61
2021/03/27 12:57:58;;;;;;;20.45;13.25;;;;;;;17.72;28.67;100940.20;1668077;84;21395;-62
2021/03/27 13:00:50;;;;;;;20.72;12.70;;;;;;;17.73;28.85;100941.90;1673184;84;21804;-66
2021/03/27 13:03:46;;;;;;;40.80;14.07;;;;;;;17.81;28.55;100934.66;1672648;84;21876;-69
2021/03/27 13:06:44;;;;;;;20.90;12.68;;;;;;;17.84;28.36;100935.58;1671388;85;21097;-71